sensor_id;sensor_type;location;lat;lon;timestamp;temperature;humidity
16076;DHT22;8142;48.242;11.644;2023-07-29T00:02:10;19.00;99.90
16076;DHT22;8142;48.242;11.644;2023-07-29T00:04:36;19.00;99.90
16076;DHT22;8142;48.242;11.644;2023-07-29T00:07:02;19.00;99.90
16076;DHT22;8142;48.242;11.644;2023-07-29T00:09:28;19.00;99.90
16076;DHT22;8142;48.242;11.644;2023-07-29T00:11:53;18.90;99.90
16076;DHT22;8142;48.242;11.644;2023-07-29T00:14:19;18.90;99.90
16076;DHT22;8142;48.242;11.644;2023-07-29T00:16:45;18.90;99.90
16076;DHT22;8142;48.242;11.644;2023-07-29T00:19:12;18.80;99.90
16076;DHT22;8142;48.242;11.644;2023-07-29T00:21:38;18.80;99.90
16076;DHT22;8142;48.242;11.644;2023-07-29T00:24:04;18.80;99.90
16076;DHT22;8142;48.242;11.644;2023-07-29T00:26:30;18.70;99.90
16076;DHT22;8142;48.242;11.644;2023-07-29T00:28:56;18.70;99.90
16076;DHT22;8142;48.242;11.644;2023-07-29T00:31:22;18.70;99.90
16076;DHT22;8142;48.242;11.644;2023-07-29T00:33:48;18.70;99.90
16076;DHT22;8142;48.242;11.644;2023-07-29T00:36:14;18.70;99.90
16076;DHT22;8142;48.242;11.644;2023-07-29T00:38:40;18.60;99.90
16076;DHT22;8142;48.242;11.644;2023-07-29T00:41:07;18.60;99.90
16076;DHT22;8142;48.242;11.644;2023-07-29T00:43:33;18.50;99.90
16076;DHT22;8142;48.242;11.644;2023-07-29T00:46:00;18.50;99.90
16076;DHT22;8142;48.242;11.644;2023-07-29T00:48:26;18.50;99.90
16076;DHT22;8142;48.242;11.644;2023-07-29T00:50:52;18.50;99.90
16076;DHT22;8142;48.242;11.644;2023-07-29T00:53:18;18.40;99.90
16076;DHT22;8142;48.242;11.644;2023-07-29T00:55:44;18.40;99.90
16076;DHT22;8142;48.242;11.644;2023-07-29T00:58:10;18.40;99.90
16076;DHT22;8142;48.242;11.644;2023-07-29T01:00:36;18.30;99.90
16076;DHT22;8142;48.242;11.644;2023-07-29T01:03:02;18.30;99.90
16076;DHT22;8142;48.242;11.644;2023-07-29T01:05:34;18.20;99.90
16076;DHT22;8142;48.242;11.644;2023-07-29T01:08:14;18.20;99.90
16076;DHT22;8142;48.242;11.644;2023-07-29T01:10:55;18.20;99.90
16076;DHT22;8142;48.242;11.644;2023-07-29T01:13:41;18.10;99.90
16076;DHT22;8142;48.242;11.644;2023-07-29T01:16:19;18.10;99.90
16076;DHT22;8142;48.242;11.644;2023-07-29T01:18:47;18.00;99.90
16076;DHT22;8142;48.242;11.644;2023-07-29T01:21:17;17.90;99.90
16076;DHT22;8142;48.242;11.644;2023-07-29T01:23:43;17.90;99.90
16076;DHT22;8142;48.242;11.644;2023-07-29T01:26:09;17.90;99.90
16076;DHT22;8142;48.242;11.644;2023-07-29T01:28:35;17.90;99.90
16076;DHT22;8142;48.242;11.644;2023-07-29T01:33:42;17.80;99.90
16076;DHT22;8142;48.242;11.644;2023-07-29T01:36:17;17.80;99.90
16076;DHT22;8142;48.242;11.644;2023-07-29T01:38:44;17.80;99.90
16076;DHT22;8142;48.242;11.644;2023-07-29T01:41:12;17.80;99.90
16076;DHT22;8142;48.242;11.644;2023-07-29T01:43:39;17.60;99.90
16076;DHT22;8142;48.242;11.644;2023-07-29T01:46:13;17.70;99.90
16076;DHT22;8142;48.242;11.644;2023-07-29T01:48:39;17.70;99.90
16076;DHT22;8142;48.242;11.644;2023-07-29T01:51:05;17.60;99.90
16076;DHT22;8142;48.242;11.644;2023-07-29T01:53:32;17.60;99.90
16076;DHT22;8142;48.242;11.644;2023-07-29T01:55:58;17.60;99.90
16076;DHT22;8142;48.242;11.644;2023-07-29T01:58:24;17.60;99.90
16076;DHT22;8142;48.242;11.644;2023-07-29T02:00:50;17.50;99.90
16076;DHT22;8142;48.242;11.644;2023-07-29T02:03:16;17.50;99.90
16076;DHT22;8142;48.242;11.644;2023-07-29T02:05:42;17.50;99.90
16076;DHT22;8142;48.242;11.644;2023-07-29T02:08:10;17.50;99.90
16076;DHT22;8142;48.242;11.644;2023-07-29T02:10:36;17.50;99.90
16076;DHT22;8142;48.242;11.644;2023-07-29T02:13:02;17.50;99.90
16076;DHT22;8142;48.242;11.644;2023-07-29T02:15:28;17.60;99.90
16076;DHT22;8142;48.242;11.644;2023-07-29T02:17:54;17.50;99.90
16076;DHT22;8142;48.242;11.644;2023-07-29T02:20:20;17.50;99.90
16076;DHT22;8142;48.242;11.644;2023-07-29T02:22:46;17.40;99.90
16076;DHT22;8142;48.242;11.644;2023-07-29T02:25:12;17.40;99.90
16076;DHT22;8142;48.242;11.644;2023-07-29T02:27:38;17.40;99.90
16076;DHT22;8142;48.242;11.644;2023-07-29T02:30:05;17.20;99.90
16076;DHT22;8142;48.242;11.644;2023-07-29T02:32:31;17.40;99.90
16076;DHT22;8142;48.242;11.644;2023-07-29T02:34:57;17.40;99.90
16076;DHT22;8142;48.242;11.644;2023-07-29T02:37:23;17.30;99.90
16076;DHT22;8142;48.242;11.644;2023-07-29T02:39:48;17.30;99.90
16076;DHT22;8142;48.242;11.644;2023-07-29T02:42:14;17.30;99.90
16076;DHT22;8142;48.242;11.644;2023-07-29T02:44:40;17.30;99.90
16076;DHT22;8142;48.242;11.644;2023-07-29T02:47:06;17.30;99.90
16076;DHT22;8142;48.242;11.644;2023-07-29T02:49:32;17.30;99.90
16076;DHT22;8142;48.242;11.644;2023-07-29T02:51:58;17.20;99.90
16076;DHT22;8142;48.242;11.644;2023-07-29T02:54:24;17.20;99.90
16076;DHT22;8142;48.242;11.644;2023-07-29T02:56:50;17.20;99.90
16076;DHT22;8142;48.242;11.644;2023-07-29T02:59:16;17.20;99.90
16076;DHT22;8142;48.242;11.644;2023-07-29T03:01:43;17.20;99.90
16076;DHT22;8142;48.242;11.644;2023-07-29T03:04:09;17.20;99.90
16076;DHT22;8142;48.242;11.644;2023-07-29T03:06:34;17.10;99.90
16076;DHT22;8142;48.242;11.644;2023-07-29T03:09:00;17.10;99.90
16076;DHT22;8142;48.242;11.644;2023-07-29T03:11:26;17.10;99.90
16076;DHT22;8142;48.242;11.644;2023-07-29T03:13:52;17.00;99.90
16076;DHT22;8142;48.242;11.644;2023-07-29T03:16:18;17.10;99.90
16076;DHT22;8142;48.242;11.644;2023-07-29T03:18:44;17.00;99.90
16076;DHT22;8142;48.242;11.644;2023-07-29T03:21:10;17.00;99.90
16076;DHT22;8142;48.242;11.644;2023-07-29T03:23:37;17.00;99.90
16076;DHT22;8142;48.242;11.644;2023-07-29T03:26:04;17.00;99.90
16076;DHT22;8142;48.242;11.644;2023-07-29T03:28:40;17.00;99.90
16076;DHT22;8142;48.242;11.644;2023-07-29T03:31:06;17.00;99.90
16076;DHT22;8142;48.242;11.644;2023-07-29T03:33:33;17.00;99.90
16076;DHT22;8142;48.242;11.644;2023-07-29T03:35:59;17.00;99.90
16076;DHT22;8142;48.242;11.644;2023-07-29T03:38:25;17.00;99.90
16076;DHT22;8142;48.242;11.644;2023-07-29T03:40:51;17.00;99.90
16076;DHT22;8142;48.242;11.644;2023-07-29T03:43:17;17.00;99.90
16076;DHT22;8142;48.242;11.644;2023-07-29T03:45:43;17.00;99.90
16076;DHT22;8142;48.242;11.644;2023-07-29T03:48:08;17.00;99.90
16076;DHT22;8142;48.242;11.644;2023-07-29T03:50:36;17.00;99.90
16076;DHT22;8142;48.242;11.644;2023-07-29T03:53:03;17.00;99.90
16076;DHT22;8142;48.242;11.644;2023-07-29T03:55:29;17.00;99.90
16076;DHT22;8142;48.242;11.644;2023-07-29T03:57:59;17.00;99.90
16076;DHT22;8142;48.242;11.644;2023-07-29T04:00:25;17.10;99.90
16076;DHT22;8142;48.242;11.644;2023-07-29T04:02:51;17.10;99.90
16076;DHT22;8142;48.242;11.644;2023-07-29T04:05:17;17.00;99.90
16076;DHT22;8142;48.242;11.644;2023-07-29T04:07:43;17.00;99.90
16076;DHT22;8142;48.242;11.644;2023-07-29T04:10:10;16.90;99.90
16076;DHT22;8142;48.242;11.644;2023-07-29T04:12:35;16.80;99.90
16076;DHT22;8142;48.242;11.644;2023-07-29T04:15:02;16.90;99.90
16076;DHT22;8142;48.242;11.644;2023-07-29T04:17:28;16.80;99.90
16076;DHT22;8142;48.242;11.644;2023-07-29T04:19:54;16.70;99.90
16076;DHT22;8142;48.242;11.644;2023-07-29T04:22:20;16.70;99.90
16076;DHT22;8142;48.242;11.644;2023-07-29T04:24:46;16.70;99.90
16076;DHT22;8142;48.242;11.644;2023-07-29T04:27:12;16.70;99.90
16076;DHT22;8142;48.242;11.644;2023-07-29T04:29:38;16.70;99.90
16076;DHT22;8142;48.242;11.644;2023-07-29T04:32:04;16.70;99.90
16076;DHT22;8142;48.242;11.644;2023-07-29T04:34:30;16.80;99.90
16076;DHT22;8142;48.242;11.644;2023-07-29T04:36:57;16.80;99.90
16076;DHT22;8142;48.242;11.644;2023-07-29T04:39:22;16.80;99.90
16076;DHT22;8142;48.242;11.644;2023-07-29T04:41:48;16.90;99.90
16076;DHT22;8142;48.242;11.644;2023-07-29T04:44:14;17.00;99.90
16076;DHT22;8142;48.242;11.644;2023-07-29T04:46:40;17.20;99.90
16076;DHT22;8142;48.242;11.644;2023-07-29T04:49:06;17.00;99.90
16076;DHT22;8142;48.242;11.644;2023-07-29T04:51:32;17.00;99.90
16076;DHT22;8142;48.242;11.644;2023-07-29T04:53:58;17.10;99.90
16076;DHT22;8142;48.242;11.644;2023-07-29T04:56:24;17.00;99.90
16076;DHT22;8142;48.242;11.644;2023-07-29T04:58:50;17.10;99.90
16076;DHT22;8142;48.242;11.644;2023-07-29T05:01:16;17.20;99.90
16076;DHT22;8142;48.242;11.644;2023-07-29T05:03:42;17.20;99.90
16076;DHT22;8142;48.242;11.644;2023-07-29T05:06:08;17.20;99.90
16076;DHT22;8142;48.242;11.644;2023-07-29T05:08:34;17.20;99.90
16076;DHT22;8142;48.242;11.644;2023-07-29T05:11:00;17.30;99.90
16076;DHT22;8142;48.242;11.644;2023-07-29T05:13:26;17.40;99.90
16076;DHT22;8142;48.242;11.644;2023-07-29T05:15:52;17.40;99.90
16076;DHT22;8142;48.242;11.644;2023-07-29T05:18:18;17.50;99.90
16076;DHT22;8142;48.242;11.644;2023-07-29T05:20:44;17.60;99.90
16076;DHT22;8142;48.242;11.644;2023-07-29T05:23:10;17.60;99.90
16076;DHT22;8142;48.242;11.644;2023-07-29T05:25:36;17.80;99.90
16076;DHT22;8142;48.242;11.644;2023-07-29T05:28:02;17.80;99.90
16076;DHT22;8142;48.242;11.644;2023-07-29T05:30:29;17.90;99.90
16076;DHT22;8142;48.242;11.644;2023-07-29T05:32:57;18.00;99.90
16076;DHT22;8142;48.242;11.644;2023-07-29T05:35:24;18.10;99.90
16076;DHT22;8142;48.242;11.644;2023-07-29T05:37:50;18.20;99.90
16076;DHT22;8142;48.242;11.644;2023-07-29T05:40:16;18.30;99.90
16076;DHT22;8142;48.242;11.644;2023-07-29T05:42:42;18.50;99.90
16076;DHT22;8142;48.242;11.644;2023-07-29T05:45:09;18.70;99.90
16076;DHT22;8142;48.242;11.644;2023-07-29T05:47:36;18.90;99.90
16076;DHT22;8142;48.242;11.644;2023-07-29T05:50:02;19.10;99.90
16076;DHT22;8142;48.242;11.644;2023-07-29T05:52:31;19.30;99.90
16076;DHT22;8142;48.242;11.644;2023-07-29T05:54:57;19.40;99.90
16076;DHT22;8142;48.242;11.644;2023-07-29T05:57:23;19.40;99.90
16076;DHT22;8142;48.242;11.644;2023-07-29T05:59:49;19.50;99.90
16076;DHT22;8142;48.242;11.644;2023-07-29T06:02:15;19.50;99.90
16076;DHT22;8142;48.242;11.644;2023-07-29T06:04:41;19.50;99.90
16076;DHT22;8142;48.242;11.644;2023-07-29T06:07:07;19.60;99.90
16076;DHT22;8142;48.242;11.644;2023-07-29T06:09:32;19.50;99.90
16076;DHT22;8142;48.242;11.644;2023-07-29T06:11:58;19.50;99.90
16076;DHT22;8142;48.242;11.644;2023-07-29T06:14:24;19.50;99.90
16076;DHT22;8142;48.242;11.644;2023-07-29T06:16:50;19.40;99.90
16076;DHT22;8142;48.242;11.644;2023-07-29T06:19:16;19.30;99.90
16076;DHT22;8142;48.242;11.644;2023-07-29T06:21:42;19.20;99.90
16076;DHT22;8142;48.242;11.644;2023-07-29T06:24:08;19.10;99.90
16076;DHT22;8142;48.242;11.644;2023-07-29T06:26:33;19.00;99.90
16076;DHT22;8142;48.242;11.644;2023-07-29T06:28:59;19.00;99.90
16076;DHT22;8142;48.242;11.644;2023-07-29T06:31:25;19.00;99.90
16076;DHT22;8142;48.242;11.644;2023-07-29T06:33:51;19.10;99.90
16076;DHT22;8142;48.242;11.644;2023-07-29T06:36:16;19.10;99.90
16076;DHT22;8142;48.242;11.644;2023-07-29T06:38:43;19.20;99.90
16076;DHT22;8142;48.242;11.644;2023-07-29T06:41:09;19.30;99.90
16076;DHT22;8142;48.242;11.644;2023-07-29T06:43:35;19.40;99.90
16076;DHT22;8142;48.242;11.644;2023-07-29T06:46:01;19.50;99.90
16076;DHT22;8142;48.242;11.644;2023-07-29T06:48:27;19.60;99.90
16076;DHT22;8142;48.242;11.644;2023-07-29T06:50:52;19.70;99.90
16076;DHT22;8142;48.242;11.644;2023-07-29T06:53:20;19.80;99.90
16076;DHT22;8142;48.242;11.644;2023-07-29T06:55:46;19.80;99.90
16076;DHT22;8142;48.242;11.644;2023-07-29T06:58:13;19.90;99.90
16076;DHT22;8142;48.242;11.644;2023-07-29T07:00:38;20.00;99.90
16076;DHT22;8142;48.242;11.644;2023-07-29T07:03:04;20.10;99.90
16076;DHT22;8142;48.242;11.644;2023-07-29T07:05:30;20.10;99.90
16076;DHT22;8142;48.242;11.644;2023-07-29T07:07:56;20.10;99.90
16076;DHT22;8142;48.242;11.644;2023-07-29T07:10:22;20.10;99.90
16076;DHT22;8142;48.242;11.644;2023-07-29T07:12:48;20.00;99.90
16076;DHT22;8142;48.242;11.644;2023-07-29T07:15:13;20.00;99.90
16076;DHT22;8142;48.242;11.644;2023-07-29T07:17:39;19.90;99.90
16076;DHT22;8142;48.242;11.644;2023-07-29T07:20:06;19.90;99.90
16076;DHT22;8142;48.242;11.644;2023-07-29T07:22:32;19.90;99.90
16076;DHT22;8142;48.242;11.644;2023-07-29T07:24:58;19.80;99.90
16076;DHT22;8142;48.242;11.644;2023-07-29T07:27:24;19.70;99.90
16076;DHT22;8142;48.242;11.644;2023-07-29T07:29:50;19.80;99.90
16076;DHT22;8142;48.242;11.644;2023-07-29T07:32:16;19.70;99.90
16076;DHT22;8142;48.242;11.644;2023-07-29T07:34:42;19.60;99.90
16076;DHT22;8142;48.242;11.644;2023-07-29T07:37:07;19.70;99.90
16076;DHT22;8142;48.242;11.644;2023-07-29T07:39:33;19.70;99.90
16076;DHT22;8142;48.242;11.644;2023-07-29T07:41:59;19.70;99.90
16076;DHT22;8142;48.242;11.644;2023-07-29T07:44:25;19.70;99.90
16076;DHT22;8142;48.242;11.644;2023-07-29T07:46:52;19.70;99.90
16076;DHT22;8142;48.242;11.644;2023-07-29T07:49:19;19.70;99.90
16076;DHT22;8142;48.242;11.644;2023-07-29T07:51:45;19.70;99.90
16076;DHT22;8142;48.242;11.644;2023-07-29T07:54:10;19.70;99.90
16076;DHT22;8142;48.242;11.644;2023-07-29T07:56:36;19.80;99.90
16076;DHT22;8142;48.242;11.644;2023-07-29T07:59:03;19.80;99.90
16076;DHT22;8142;48.242;11.644;2023-07-29T08:01:37;19.80;99.90
16076;DHT22;8142;48.242;11.644;2023-07-29T08:04:03;19.80;99.90
16076;DHT22;8142;48.242;11.644;2023-07-29T08:06:30;19.90;99.90
16076;DHT22;8142;48.242;11.644;2023-07-29T08:08:56;19.90;99.90
16076;DHT22;8142;48.242;11.644;2023-07-29T08:11:22;19.90;99.90
16076;DHT22;8142;48.242;11.644;2023-07-29T08:13:48;20.00;99.90
16076;DHT22;8142;48.242;11.644;2023-07-29T08:16:14;20.00;99.90
16076;DHT22;8142;48.242;11.644;2023-07-29T08:18:40;20.00;99.90
16076;DHT22;8142;48.242;11.644;2023-07-29T08:21:06;20.10;99.90
16076;DHT22;8142;48.242;11.644;2023-07-29T08:23:34;20.20;99.90
16076;DHT22;8142;48.242;11.644;2023-07-29T08:26:02;20.20;99.90
16076;DHT22;8142;48.242;11.644;2023-07-29T08:28:30;20.30;99.90
16076;DHT22;8142;48.242;11.644;2023-07-29T08:30:56;20.30;99.90
16076;DHT22;8142;48.242;11.644;2023-07-29T08:33:22;20.30;99.90
16076;DHT22;8142;48.242;11.644;2023-07-29T08:35:48;20.40;99.90
16076;DHT22;8142;48.242;11.644;2023-07-29T08:38:14;20.40;99.90
16076;DHT22;8142;48.242;11.644;2023-07-29T08:43:29;20.50;99.90
16076;DHT22;8142;48.242;11.644;2023-07-29T08:45:58;20.40;99.90
16076;DHT22;8142;48.242;11.644;2023-07-29T08:48:40;20.40;99.90
16076;DHT22;8142;48.242;11.644;2023-07-29T08:51:09;20.40;99.90
16076;DHT22;8142;48.242;11.644;2023-07-29T08:53:36;20.40;99.90
16076;DHT22;8142;48.242;11.644;2023-07-29T08:56:02;20.50;99.90
16076;DHT22;8142;48.242;11.644;2023-07-29T08:58:29;20.60;99.90
16076;DHT22;8142;48.242;11.644;2023-07-29T09:00:55;20.60;99.90
16076;DHT22;8142;48.242;11.644;2023-07-29T09:03:21;20.80;99.90
16076;DHT22;8142;48.242;11.644;2023-07-29T09:05:47;20.80;99.90
16076;DHT22;8142;48.242;11.644;2023-07-29T09:08:14;20.90;99.90
16076;DHT22;8142;48.242;11.644;2023-07-29T09:10:40;20.90;99.90
16076;DHT22;8142;48.242;11.644;2023-07-29T09:13:07;21.00;99.90
16076;DHT22;8142;48.242;11.644;2023-07-29T09:15:34;21.10;99.90
16076;DHT22;8142;48.242;11.644;2023-07-29T09:18:11;21.20;99.90
16076;DHT22;8142;48.242;11.644;2023-07-29T09:20:37;21.30;99.90
16076;DHT22;8142;48.242;11.644;2023-07-29T09:23:03;21.30;99.90
16076;DHT22;8142;48.242;11.644;2023-07-29T09:25:32;21.40;99.90
16076;DHT22;8142;48.242;11.644;2023-07-29T09:28:07;21.40;99.90
16076;DHT22;8142;48.242;11.644;2023-07-29T09:30:33;21.50;99.90
16076;DHT22;8142;48.242;11.644;2023-07-29T09:32:59;21.50;99.90
16076;DHT22;8142;48.242;11.644;2023-07-29T09:35:27;21.60;99.90
16076;DHT22;8142;48.242;11.644;2023-07-29T09:37:53;21.60;99.90
16076;DHT22;8142;48.242;11.644;2023-07-29T09:40:20;21.70;99.90
16076;DHT22;8142;48.242;11.644;2023-07-29T09:42:50;21.80;99.90
16076;DHT22;8142;48.242;11.644;2023-07-29T09:45:20;21.90;99.90
16076;DHT22;8142;48.242;11.644;2023-07-29T09:47:46;22.00;99.90
16076;DHT22;8142;48.242;11.644;2023-07-29T09:50:13;22.00;99.90
16076;DHT22;8142;48.242;11.644;2023-07-29T09:52:39;22.10;99.90
16076;DHT22;8142;48.242;11.644;2023-07-29T09:55:05;22.20;99.90
16076;DHT22;8142;48.242;11.644;2023-07-29T09:57:32;22.30;99.90
16076;DHT22;8142;48.242;11.644;2023-07-29T09:59:58;22.40;99.90
16076;DHT22;8142;48.242;11.644;2023-07-29T10:02:24;22.50;99.90
16076;DHT22;8142;48.242;11.644;2023-07-29T10:04:54;22.60;99.90
16076;DHT22;8142;48.242;11.644;2023-07-29T10:07:20;22.70;99.90
16076;DHT22;8142;48.242;11.644;2023-07-29T10:09:47;22.80;99.90
16076;DHT22;8142;48.242;11.644;2023-07-29T10:12:13;22.80;99.90
16076;DHT22;8142;48.242;11.644;2023-07-29T10:14:40;22.90;99.90
16076;DHT22;8142;48.242;11.644;2023-07-29T10:17:06;23.00;99.90
16076;DHT22;8142;48.242;11.644;2023-07-29T10:19:32;23.00;99.90
16076;DHT22;8142;48.242;11.644;2023-07-29T10:22:02;23.10;99.90
16076;DHT22;8142;48.242;11.644;2023-07-29T10:24:32;23.10;99.90
16076;DHT22;8142;48.242;11.644;2023-07-29T10:27:00;23.20;99.90
16076;DHT22;8142;48.242;11.644;2023-07-29T10:29:38;23.30;99.90
16076;DHT22;8142;48.242;11.644;2023-07-29T10:32:06;23.30;99.90
16076;DHT22;8142;48.242;11.644;2023-07-29T10:34:33;23.40;99.90
16076;DHT22;8142;48.242;11.644;2023-07-29T10:37:01;23.50;99.90
16076;DHT22;8142;48.242;11.644;2023-07-29T10:39:27;23.50;99.90
16076;DHT22;8142;48.242;11.644;2023-07-29T10:41:59;23.60;99.90
16076;DHT22;8142;48.242;11.644;2023-07-29T10:47:16;23.80;99.90
16076;DHT22;8142;48.242;11.644;2023-07-29T10:49:46;23.80;99.90
16076;DHT22;8142;48.242;11.644;2023-07-29T10:52:16;23.90;99.90
16076;DHT22;8142;48.242;11.644;2023-07-29T10:54:52;24.00;99.90
16076;DHT22;8142;48.242;11.644;2023-07-29T10:57:31;24.00;99.90
16076;DHT22;8142;48.242;11.644;2023-07-29T10:59:58;24.10;99.90
16076;DHT22;8142;48.242;11.644;2023-07-29T11:02:32;24.10;99.90
16076;DHT22;8142;48.242;11.644;2023-07-29T11:05:04;24.10;99.90
16076;DHT22;8142;48.242;11.644;2023-07-29T11:07:30;24.20;99.90
16076;DHT22;8142;48.242;11.644;2023-07-29T11:09:59;24.10;99.90
16076;DHT22;8142;48.242;11.644;2023-07-29T11:17:38;23.70;99.90
16076;DHT22;8142;48.242;11.644;2023-07-29T11:20:05;23.50;99.90
16076;DHT22;8142;48.242;11.644;2023-07-29T11:22:42;23.30;99.90
16076;DHT22;8142;48.242;11.644;2023-07-29T11:25:10;23.10;99.90
16076;DHT22;8142;48.242;11.644;2023-07-29T11:27:37;22.90;99.90
16076;DHT22;8142;48.242;11.644;2023-07-29T11:30:05;22.80;99.90
16076;DHT22;8142;48.242;11.644;2023-07-29T11:32:32;22.70;99.90
16076;DHT22;8142;48.242;11.644;2023-07-29T11:35:06;22.70;99.90
16076;DHT22;8142;48.242;11.644;2023-07-29T11:37:34;22.60;99.90
16076;DHT22;8142;48.242;11.644;2023-07-29T11:40:00;22.60;99.90
16076;DHT22;8142;48.242;11.644;2023-07-29T11:42:27;22.60;99.90
16076;DHT22;8142;48.242;11.644;2023-07-29T11:44:56;22.60;99.90
16076;DHT22;8142;48.242;11.644;2023-07-29T11:47:22;22.60;99.90
16076;DHT22;8142;48.242;11.644;2023-07-29T11:49:48;22.50;99.90
16076;DHT22;8142;48.242;11.644;2023-07-29T11:52:14;22.50;99.90
16076;DHT22;8142;48.242;11.644;2023-07-29T11:54:48;22.60;99.90
16076;DHT22;8142;48.242;11.644;2023-07-29T11:57:15;22.60;99.90
16076;DHT22;8142;48.242;11.644;2023-07-29T11:59:42;22.60;99.90
16076;DHT22;8142;48.242;11.644;2023-07-29T12:02:19;22.60;99.90
16076;DHT22;8142;48.242;11.644;2023-07-29T12:04:47;22.60;99.90
16076;DHT22;8142;48.242;11.644;2023-07-29T12:07:17;22.60;99.90
16076;DHT22;8142;48.242;11.644;2023-07-29T12:09:45;22.70;99.90
16076;DHT22;8142;48.242;11.644;2023-07-29T12:12:11;22.70;99.90
16076;DHT22;8142;48.242;11.644;2023-07-29T12:14:37;22.70;99.90
16076;DHT22;8142;48.242;11.644;2023-07-29T12:17:05;22.80;99.90
16076;DHT22;8142;48.242;11.644;2023-07-29T12:19:38;22.80;99.90
16076;DHT22;8142;48.242;11.644;2023-07-29T12:22:08;22.80;99.90
16076;DHT22;8142;48.242;11.644;2023-07-29T12:24:40;22.90;99.90
16076;DHT22;8142;48.242;11.644;2023-07-29T12:27:13;23.00;99.90
16076;DHT22;8142;48.242;11.644;2023-07-29T12:29:43;23.00;99.90
16076;DHT22;8142;48.242;11.644;2023-07-29T12:32:10;23.10;99.90
16076;DHT22;8142;48.242;11.644;2023-07-29T12:34:37;23.20;99.90
16076;DHT22;8142;48.242;11.644;2023-07-29T12:37:05;23.20;99.90
16076;DHT22;8142;48.242;11.644;2023-07-29T12:39:39;23.30;99.90
16076;DHT22;8142;48.242;11.644;2023-07-29T12:42:05;23.30;99.90
16076;DHT22;8142;48.242;11.644;2023-07-29T12:44:33;23.30;99.90
16076;DHT22;8142;48.242;11.644;2023-07-29T12:47:01;23.30;99.90
16076;DHT22;8142;48.242;11.644;2023-07-29T12:49:29;23.30;99.90
16076;DHT22;8142;48.242;11.644;2023-07-29T12:51:56;23.30;99.90
16076;DHT22;8142;48.242;11.644;2023-07-29T12:54:22;23.20;99.90
16076;DHT22;8142;48.242;11.644;2023-07-29T12:56:49;23.20;99.90
16076;DHT22;8142;48.242;11.644;2023-07-29T12:59:15;23.20;99.90
16076;DHT22;8142;48.242;11.644;2023-07-29T13:01:41;23.20;99.90
16076;DHT22;8142;48.242;11.644;2023-07-29T13:04:07;23.10;99.90
16076;DHT22;8142;48.242;11.644;2023-07-29T13:06:32;23.10;99.90
16076;DHT22;8142;48.242;11.644;2023-07-29T13:08:58;23.10;99.90
16076;DHT22;8142;48.242;11.644;2023-07-29T13:11:24;23.10;99.90
16076;DHT22;8142;48.242;11.644;2023-07-29T13:13:51;23.10;99.90
16076;DHT22;8142;48.242;11.644;2023-07-29T13:16:17;23.10;99.90
16076;DHT22;8142;48.242;11.644;2023-07-29T13:18:43;23.00;99.90
16076;DHT22;8142;48.242;11.644;2023-07-29T13:21:09;23.00;99.90
16076;DHT22;8142;48.242;11.644;2023-07-29T13:23:35;22.90;99.90
16076;DHT22;8142;48.242;11.644;2023-07-29T13:26:01;22.90;99.90
16076;DHT22;8142;48.242;11.644;2023-07-29T13:28:27;22.70;99.90
16076;DHT22;8142;48.242;11.644;2023-07-29T13:30:53;22.60;99.90
16076;DHT22;8142;48.242;11.644;2023-07-29T13:33:19;22.60;99.90
16076;DHT22;8142;48.242;11.644;2023-07-29T13:35:45;22.60;99.90
16076;DHT22;8142;48.242;11.644;2023-07-29T13:38:11;22.60;99.90
16076;DHT22;8142;48.242;11.644;2023-07-29T13:40:37;22.60;99.90
16076;DHT22;8142;48.242;11.644;2023-07-29T13:43:03;22.50;99.90
16076;DHT22;8142;48.242;11.644;2023-07-29T13:45:28;22.60;99.90
16076;DHT22;8142;48.242;11.644;2023-07-29T13:47:54;22.60;99.90
16076;DHT22;8142;48.242;11.644;2023-07-29T13:50:21;22.60;99.90
16076;DHT22;8142;48.242;11.644;2023-07-29T13:52:47;22.60;99.90
16076;DHT22;8142;48.242;11.644;2023-07-29T13:55:13;22.60;99.90
16076;DHT22;8142;48.242;11.644;2023-07-29T13:57:39;22.60;99.90
16076;DHT22;8142;48.242;11.644;2023-07-29T14:00:07;22.60;99.90
16076;DHT22;8142;48.242;11.644;2023-07-29T14:02:36;22.60;99.90
16076;DHT22;8142;48.242;11.644;2023-07-29T14:05:03;22.60;99.90
16076;DHT22;8142;48.242;11.644;2023-07-29T14:07:29;22.60;99.90
16076;DHT22;8142;48.242;11.644;2023-07-29T14:09:58;22.70;99.90
16076;DHT22;8142;48.242;11.644;2023-07-29T14:12:23;22.70;99.90
16076;DHT22;8142;48.242;11.644;2023-07-29T14:14:49;22.70;99.90
16076;DHT22;8142;48.242;11.644;2023-07-29T14:17:15;22.80;99.90
16076;DHT22;8142;48.242;11.644;2023-07-29T14:19:41;22.70;99.90
16076;DHT22;8142;48.242;11.644;2023-07-29T14:22:07;22.80;99.90
16076;DHT22;8142;48.242;11.644;2023-07-29T14:24:32;22.80;99.90
16076;DHT22;8142;48.242;11.644;2023-07-29T14:26:58;22.80;99.90
16076;DHT22;8142;48.242;11.644;2023-07-29T14:29:24;22.80;99.90
16076;DHT22;8142;48.242;11.644;2023-07-29T14:31:50;22.80;99.90
16076;DHT22;8142;48.242;11.644;2023-07-29T14:34:16;22.70;99.90
16076;DHT22;8142;48.242;11.644;2023-07-29T14:36:41;22.70;99.90
16076;DHT22;8142;48.242;11.644;2023-07-29T14:39:07;22.60;99.90
16076;DHT22;8142;48.242;11.644;2023-07-29T14:41:33;22.60;99.90
16076;DHT22;8142;48.242;11.644;2023-07-29T14:44:00;22.60;99.90
16076;DHT22;8142;48.242;11.644;2023-07-29T14:46:25;22.60;99.90
16076;DHT22;8142;48.242;11.644;2023-07-29T14:48:51;22.60;99.90
16076;DHT22;8142;48.242;11.644;2023-07-29T14:51:17;22.50;99.90
16076;DHT22;8142;48.242;11.644;2023-07-29T14:53:45;22.50;99.90
16076;DHT22;8142;48.242;11.644;2023-07-29T14:56:13;22.50;99.90
16076;DHT22;8142;48.242;11.644;2023-07-29T14:58:43;22.40;99.90
16076;DHT22;8142;48.242;11.644;2023-07-29T15:01:09;22.30;99.90
16076;DHT22;8142;48.242;11.644;2023-07-29T15:03:35;22.30;99.90
16076;DHT22;8142;48.242;11.644;2023-07-29T15:06:01;22.20;99.90
16076;DHT22;8142;48.242;11.644;2023-07-29T15:08:28;22.10;99.90
16076;DHT22;8142;48.242;11.644;2023-07-29T15:10:54;22.10;99.90
16076;DHT22;8142;48.242;11.644;2023-07-29T15:13:20;22.10;99.90
16076;DHT22;8142;48.242;11.644;2023-07-29T15:15:46;22.00;99.90
16076;DHT22;8142;48.242;11.644;2023-07-29T15:18:13;22.00;99.90
16076;DHT22;8142;48.242;11.644;2023-07-29T15:20:39;21.90;99.90
16076;DHT22;8142;48.242;11.644;2023-07-29T15:23:05;21.90;99.90
16076;DHT22;8142;48.242;11.644;2023-07-29T15:25:31;21.80;99.90
16076;DHT22;8142;48.242;11.644;2023-07-29T15:27:57;21.70;99.90
16076;DHT22;8142;48.242;11.644;2023-07-29T15:30:23;21.70;99.90
16076;DHT22;8142;48.242;11.644;2023-07-29T15:32:49;21.70;99.90
16076;DHT22;8142;48.242;11.644;2023-07-29T15:35:15;21.60;99.90
16076;DHT22;8142;48.242;11.644;2023-07-29T15:37:41;21.60;99.90
16076;DHT22;8142;48.242;11.644;2023-07-29T15:40:07;21.50;99.90
16076;DHT22;8142;48.242;11.644;2023-07-29T15:42:34;21.50;99.90